Time;durP1;ratioP1;P1;durP2;ratioP2;P2;SDS_P1;SDS_P2;PMS_P1;PMS_P2;Temp;Humidity;BMP_temperature;BMP_pressure;BME280_temperature;BME280_humidity;BME280_pressure;Samples;Min_cycle;Max_cycle;Signal;HPM_P1;HPM_P2
2022/01/05 00:00:06;;;;;;;6.40;3.43;;;6.00;99.90;;;;;;5048553;28;20209;-66
2022/01/05 00:02:33;;;;;;;5.50;3.60;;;6.00;99.90;;;;;;5049025;28;20202;-66
2022/01/05 00:04:59;;;;;;;4.77;3.47;;;6.00;99.90;;;;;;5049412;28;20214;-67
2022/01/05 00:07:26;;;;;;;6.10;4.03;;;5.90;99.90;;;;;;5050761;28;20240;-66
2022/01/05 00:09:53;;;;;;;6.43;4.10;;;5.90;99.90;;;;;;5053378;28;20729;-67
2022/01/05 00:12:21;;;;;;;7.17;4.20;;;5.90;99.90;;;;;;5049119;28;20211;-66
2022/01/05 00:14:48;;;;;;;8.47;5.00;;;5.90;99.90;;;;;;5054832;28;20654;-66
2022/01/05 00:17:15;;;;;;;7.37;5.47;;;5.90;99.90;;;;;;5040444;28;20222;-67
2022/01/05 00:19:43;;;;;;;8.33;5.10;;;5.80;99.90;;;;;;5043037;28;20206;-67
2022/01/05 00:22:11;;;;;;;7.27;5.20;;;5.80;99.90;;;;;;5049906;28;20214;-67
2022/01/05 00:24:38;;;;;;;9.10;5.30;;;5.90;99.90;;;;;;5056813;28;20578;-67
2022/01/05 00:27:05;;;;;;;7.83;5.73;;;5.80;99.90;;;;;;5050708;28;20212;-67
2022/01/05 00:29:33;;;;;;;11.53;6.30;;;5.80;99.90;;;;;;5048134;28;20206;-67
2022/01/05 00:32:00;;;;;;;8.63;5.87;;;5.80;99.90;;;;;;5049283;28;20218;-66
2022/01/05 00:34:27;;;;;;;9.03;5.60;;;5.80;99.90;;;;;;5047831;28;20198;-67
2022/01/05 00:36:54;;;;;;;9.23;6.17;;;5.80;99.90;;;;;;5047817;28;20639;-67
2022/01/05 00:39:21;;;;;;;8.63;5.47;;;5.80;99.90;;;;;;5047791;28;20206;-67
2022/01/05 00:41:48;;;;;;;9.43;6.20;;;5.80;99.90;;;;;;5048894;28;20749;-67
2022/01/05 00:44:15;;;;;;;12.03;6.43;;;5.80;99.90;;;;;;5048591;28;20214;-67
2022/01/05 00:46:43;;;;;;;9.27;6.37;;;5.80;99.90;;;;;;5045319;28;20198;-66
2022/01/05 00:49:10;;;;;;;9.00;6.43;;;5.80;99.90;;;;;;5036366;28;20257;-66
2022/01/05 00:51:37;;;;;;;13.10;6.73;;;5.80;99.90;;;;;;5034783;28;20209;-66
2022/01/05 00:54:04;;;;;;;8.43;6.47;;;5.80;99.90;;;;;;5036666;28;20563;-68
2022/01/05 00:56:31;;;;;;;8.50;6.00;;;5.80;99.90;;;;;;5029786;28;20693;-67
2022/01/05 00:58:57;;;;;;;8.17;6.27;;;5.80;99.90;;;;;;5041348;28;20600;-67
2022/01/05 01:01:24;;;;;;;8.20;5.83;;;5.80;99.90;;;;;;5035216;28;20241;-66
2022/01/05 01:03:53;;;;;;;8.23;6.17;;;5.80;99.90;;;;;;5051006;28;20289;-67
2022/01/05 01:06:19;;;;;;;9.80;7.10;;;5.80;99.90;;;;;;5048725;28;20639;-66
2022/01/05 01:08:47;;;;;;;9.30;6.33;;;5.80;99.90;;;;;;5047590;28;20298;-66
2022/01/05 01:11:14;;;;;;;10.07;5.87;;;5.80;99.90;;;;;;5043166;28;20622;-66
2022/01/05 01:13:43;;;;;;;8.23;5.70;;;5.80;99.90;;;;;;5034604;28;20298;-67
2022/01/05 01:16:10;;;;;;;8.67;5.37;;;5.80;99.90;;;;;;5041448;28;20225;-67
2022/01/05 01:18:37;;;;;;;9.70;5.90;;;5.80;99.90;;;;;;5046347;28;20205;-66
2022/01/05 01:21:05;;;;;;;8.13;5.47;;;5.80;99.90;;;;;;5038143;28;20761;-66
2022/01/05 01:23:32;;;;;;;7.77;5.93;;;5.90;99.90;;;;;;5051073;28;20569;-67
2022/01/05 01:25:59;;;;;;;9.67;5.67;;;5.80;99.90;;;;;;5043492;28;20233;-66
2022/01/05 01:28:26;;;;;;;10.83;5.97;;;5.90;99.90;;;;;;5053238;28;20274;-66
2022/01/05 01:30:53;;;;;;;9.83;6.33;;;5.90;99.90;;;;;;5046956;28;20578;-67
2022/01/05 01:33:20;;;;;;;8.27;6.03;;;5.90;99.90;;;;;;5044326;28;20207;-67
2022/01/05 01:35:47;;;;;;;9.20;6.80;;;5.90;99.90;;;;;;5040073;28;20407;-67
2022/01/05 01:38:15;;;;;;;7.53;5.77;;;5.90;99.90;;;;;;5046708;28;20753;-67
2022/01/05 01:40:42;;;;;;;9.13;6.33;;;5.90;99.90;;;;;;5053804;28;20293;-68
2022/01/05 01:43:09;;;;;;;8.67;6.20;;;5.90;99.90;;;;;;5049285;28;20209;-66
2022/01/05 01:45:36;;;;;;;11.07;6.73;;;5.90;99.90;;;;;;5041866;28;20209;-66
2022/01/05 01:48:04;;;;;;;10.70;6.67;;;6.00;99.90;;;;;;5043410;28;20200;-66
2022/01/05 01:50:30;;;;;;;9.73;6.73;;;5.90;99.90;;;;;;5032050;28;20203;-66
2022/01/05 01:52:57;;;;;;;10.13;6.27;;;5.90;99.90;;;;;;5033500;28;20209;-67
2022/01/05 01:55:26;;;;;;;9.37;6.43;;;5.90;99.90;;;;;;5033934;28;20608;-66
2022/01/05 01:57:54;;;;;;;12.40;6.40;;;5.80;99.90;;;;;;5033026;28;20241;-67
2022/01/05 02:00:22;;;;;;;10.87;6.97;;;6.00;99.90;;;;;;5035975;28;20229;-67
2022/01/05 02:02:49;;;;;;;10.33;7.20;;;6.00;99.90;;;;;;5036322;28;20210;-67
2022/01/05 02:05:17;;;;;;;11.83;6.53;;;6.00;99.90;;;;;;5040310;28;20207;-67
2022/01/05 02:07:44;;;;;;;11.50;7.57;;;6.00;99.90;;;;;;5046664;28;20760;-66
2022/01/05 02:10:11;;;;;;;14.13;7.93;;;6.10;99.90;;;;;;5039208;28;20210;-66
2022/01/05 02:12:39;;;;;;;11.73;7.90;;;6.00;99.90;;;;;;5046988;28;20647;-67
2022/01/05 02:15:07;;;;;;;12.80;8.30;;;6.00;99.90;;;;;;5030735;28;20214;-66
2022/01/05 02:17:45;;;;;;;13.23;8.00;;;6.00;99.90;;;;;;5047198;28;20219;-66
2022/01/05 02:20:15;;;;;;;12.40;8.60;;;6.00;99.90;;;;;;5032725;28;20251;-66
2022/01/05 02:22:45;;;;;;;13.57;8.90;;;6.10;99.90;;;;;;5047071;28;20212;-67
2022/01/05 02:25:12;;;;;;;13.30;8.73;;;6.10;99.90;;;;;;5040970;28;20573;-66
2022/01/05 02:27:40;;;;;;;13.77;8.90;;;6.10;99.90;;;;;;5050152;28;20202;-67
2022/01/05 02:30:09;;;;;;;12.43;8.30;;;6.10;99.90;;;;;;5038918;28;20201;-66
2022/01/05 02:32:36;;;;;;;15.27;9.00;;;6.10;99.90;;;;;;5049612;28;20198;-66
2022/01/05 02:35:04;;;;;;;12.30;8.80;;;6.10;99.90;;;;;;5036718;28;20202;-67
2022/01/05 02:37:31;;;;;;;14.07;8.90;;;6.10;99.90;;;;;;5035118;28;20238;-67
2022/01/05 02:39:59;;;;;;;13.73;8.70;;;6.10;99.90;;;;;;5053679;28;20216;-66
2022/01/05 02:42:26;;;;;;;16.73;9.17;;;6.10;99.90;;;;;;5050491;28;20208;-67
2022/01/05 02:44:53;;;;;;;16.77;9.77;;;6.20;99.90;;;;;;5046789;28;20551;-65
2022/01/05 02:47:20;;;;;;;14.43;9.20;;;6.20;99.90;;;;;;5041911;28;20199;-66
2022/01/05 02:49:47;;;;;;;16.83;9.87;;;6.20;99.90;;;;;;5040870;28;20215;-68
2022/01/05 02:52:14;;;;;;;12.97;9.00;;;6.20;99.90;;;;;;5040263;28;20301;-66
2022/01/05 02:54:42;;;;;;;14.40;9.20;;;6.20;99.90;;;;;;5038333;28;20267;-67
2022/01/05 02:57:10;;;;;;;16.57;10.03;;;6.30;99.90;;;;;;5033444;28;20241;-67
2022/01/05 02:59:37;;;;;;;15.70;9.83;;;6.30;99.90;;;;;;5039754;28;20198;-67
2022/01/05 03:02:04;;;;;;;15.20;10.10;;;6.30;99.90;;;;;;5035191;28;20219;-67
2022/01/05 03:04:31;;;;;;;14.90;9.80;;;6.30;99.90;;;;;;5038980;28;20287;-67
2022/01/05 03:06:58;;;;;;;14.40;10.17;;;6.30;99.90;;;;;;5033395;28;20221;-66
2022/01/05 03:09:25;;;;;;;13.57;9.47;;;6.30;99.90;;;;;;5035218;28;20316;-66
2022/01/05 03:11:52;;;;;;;15.63;9.70;;;6.30;99.90;;;;;;5040032;28;20218;-67
2022/01/05 03:14:20;;;;;;;14.90;9.63;;;6.30;99.90;;;;;;5047711;28;20209;-66
2022/01/05 03:16:47;;;;;;;14.97;9.93;;;6.30;99.90;;;;;;5045985;28;20224;-67
2022/01/05 03:19:14;;;;;;;16.07;10.27;;;6.30;99.90;;;;;;5045364;28;20599;-66
2022/01/05 03:21:41;;;;;;;14.93;10.27;;;6.30;99.90;;;;;;5035919;28;20202;-66
2022/01/05 03:24:08;;;;;;;14.77;10.03;;;6.30;99.90;;;;;;5040919;28;20702;-65
2022/01/05 03:26:35;;;;;;;14.00;10.10;;;6.40;99.90;;;;;;5048035;28;20206;-66
2022/01/05 03:29:01;;;;;;;16.13;10.97;;;6.30;99.90;;;;;;5037844;28;20610;-67
2022/01/05 03:31:30;;;;;;;16.57;10.37;;;6.40;99.90;;;;;;5047099;28;20202;-67
2022/01/05 03:33:56;;;;;;;16.10;10.77;;;6.40;99.90;;;;;;5035467;28;20331;-66
2022/01/05 03:36:23;;;;;;;16.07;10.93;;;6.40;99.90;;;;;;5044287;28;20268;-66
2022/01/05 03:38:50;;;;;;;19.40;10.53;;;6.40;99.90;;;;;;5047863;28;20233;-65
2022/01/05 03:41:17;;;;;;;16.40;11.20;;;6.40;99.90;;;;;;5043619;28;20202;-66
2022/01/05 03:43:44;;;;;;;18.47;11.63;;;6.50;99.90;;;;;;5032549;28;20213;-67
2022/01/05 03:46:11;;;;;;;15.47;11.27;;;6.50;99.90;;;;;;5038191;28;20217;-66
2022/01/05 03:48:39;;;;;;;15.33;11.23;;;6.50;99.90;;;;;;5032393;28;20652;-67
2022/01/05 03:51:06;;;;;;;19.50;12.20;;;6.50;99.90;;;;;;5032741;28;20221;-67
2022/01/05 03:53:33;;;;;;;18.53;12.03;;;6.50;99.90;;;;;;5032752;28;20293;-66
2022/01/05 03:56:01;;;;;;;17.37;12.33;;;6.60;99.90;;;;;;5032673;28;20211;-66
2022/01/05 03:58:28;;;;;;;17.27;12.17;;;6.60;99.90;;;;;;5031849;28;20240;-66
2022/01/05 04:00:55;;;;;;;18.50;12.20;;;6.60;99.90;;;;;;5041032;28;20213;-66
2022/01/05 04:03:22;;;;;;;18.70;12.00;;;6.60;99.90;;;;;;5033054;28;20198;-67
2022/01/05 04:05:50;;;;;;;18.47;11.83;;;6.60;99.90;;;;;;5023446;28;20289;-66
2022/01/05 04:08:17;;;;;;;17.07;11.93;;;6.60;99.90;;;;;;5034815;28;20294;-66
2022/01/05 04:10:44;;;;;;;15.50;11.30;;;6.70;99.90;;;;;;5044242;28;20205;-67
2022/01/05 04:13:12;;;;;;;15.00;11.53;;;6.60;99.90;;;;;;5034627;28;20309;-67
2022/01/05 04:15:39;;;;;;;18.60;12.40;;;6.60;99.90;;;;;;5042352;28;20289;-67
2022/01/05 04:18:06;;;;;;;20.90;12.90;;;6.60;99.90;;;;;;5042803;28;20637;-67
2022/01/05 04:20:33;;;;;;;17.80;12.27;;;6.60;99.90;;;;;;5042713;28;20210;-65
2022/01/05 04:23:01;;;;;;;18.87;12.17;;;6.60;99.90;;;;;;5035266;28;20227;-66
2022/01/05 04:25:28;;;;;;;17.63;12.57;;;6.60;99.90;;;;;;5049254;28;20207;-67
2022/01/05 04:27:55;;;;;;;18.80;12.10;;;6.50;99.90;;;;;;5047557;28;20260;-67
2022/01/05 04:30:22;;;;;;;18.53;11.80;;;6.60;99.90;;;;;;5040471;28;20241;-66
2022/01/05 04:32:49;;;;;;;17.00;12.07;;;6.50;99.90;;;;;;5047969;28;20202;-66
2022/01/05 04:35:15;;;;;;;15.60;12.00;;;6.50;99.90;;;;;;5042025;28;20245;-66
2022/01/05 04:37:43;;;;;;;18.17;12.40;;;6.50;99.90;;;;;;5051594;28;20276;-66
2022/01/05 04:40:12;;;;;;;17.10;12.83;;;6.40;99.90;;;;;;5050561;28;20671;-66
2022/01/05 04:42:39;;;;;;;18.37;12.57;;;6.40;99.90;;;;;;5047300;28;20330;-67
2022/01/05 04:45:07;;;;;;;17.53;12.47;;;6.40;99.90;;;;;;5041347;28;20784;-67
2022/01/05 04:47:34;;;;;;;16.53;12.40;;;6.40;99.90;;;;;;5049771;28;20225;-66
2022/01/05 04:50:01;;;;;;;18.30;12.27;;;6.40;99.90;;;;;;5044881;28;20229;-66
2022/01/05 04:52:28;;;;;;;19.37;12.63;;;6.40;99.90;;;;;;5044144;28;20840;-66
2022/01/05 04:54:55;;;;;;;17.17;12.53;;;6.40;99.90;;;;;;5037479;28;20202;-67
2022/01/05 04:57:23;;;;;;;17.87;12.43;;;6.40;99.90;;;;;;5034212;28;20235;-66
2022/01/05 04:59:50;;;;;;;18.40;13.23;;;6.40;99.90;;;;;;5035114;28;20293;-66
2022/01/05 05:02:17;;;;;;;16.57;12.37;;;6.40;99.90;;;;;;5034146;28;20709;-67
2022/01/05 05:04:44;;;;;;;19.93;12.80;;;6.40;99.90;;;;;;5047534;28;20260;-68
2022/01/05 05:07:11;;;;;;;19.53;12.60;;;6.40;99.90;;;;;;5051005;28;20621;-67
2022/01/05 05:09:38;;;;;;;17.97;13.10;;;6.40;99.90;;;;;;5035067;28;20211;-67
2022/01/05 05:12:06;;;;;;;16.53;12.20;;;6.40;99.90;;;;;;5043159;28;20211;-67
2022/01/05 05:14:34;;;;;;;19.43;13.63;;;6.40;99.90;;;;;;5043701;28;20582;-66
2022/01/05 05:17:01;;;;;;;17.80;12.97;;;6.40;99.90;;;;;;5045273;28;20639;-67
2022/01/05 05:19:28;;;;;;;18.03;13.33;;;6.50;99.90;;;;;;5025330;28;20248;-66
2022/01/05 05:21:55;;;;;;;17.83;12.97;;;6.50;99.90;;;;;;5040136;28;20754;-66
2022/01/05 05:24:22;;;;;;;18.90;12.90;;;6.50;99.90;;;;;;5044986;28;20225;-66
2022/01/05 05:26:49;;;;;;;20.40;13.17;;;6.50;99.90;;;;;;5039156;28;20215;-66
2022/01/05 05:29:16;;;;;;;17.13;13.30;;;6.50;99.90;;;;;;5051943;28;20241;-66
2022/01/05 05:31:44;;;;;;;17.33;12.87;;;6.50;99.90;;;;;;5046694;28;20202;-68
2022/01/05 05:34:11;;;;;;;19.40;13.17;;;6.50;99.90;;;;;;5048465;28;20198;-66
2022/01/05 05:36:38;;;;;;;17.77;12.43;;;6.50;99.90;;;;;;5049736;28;20293;-66
2022/01/05 05:39:05;;;;;;;16.30;12.80;;;6.50;99.90;;;;;;5047335;28;20272;-66
2022/01/05 05:41:32;;;;;;;19.40;13.47;;;6.60;99.90;;;;;;5034381;28;20211;-67
2022/01/05 05:43:59;;;;;;;17.70;12.23;;;6.60;99.90;;;;;;5043289;28;20236;-67
2022/01/05 05:46:25;;;;;;;17.67;13.87;;;6.60;99.90;;;;;;5042606;28;20240;-66
2022/01/05 05:48:54;;;;;;;17.57;13.50;;;6.60;99.90;;;;;;5051086;28;20293;-68
2022/01/05 05:51:20;;;;;;;18.53;13.27;;;6.60;99.90;;;;;;5035636;28;20229;-66
2022/01/05 05:53:47;;;;;;;17.27;12.33;;;6.60;99.90;;;;;;5033234;28;20210;-67
2022/01/05 05:56:14;;;;;;;17.17;13.60;;;6.60;99.90;;;;;;5026754;28;20585;-68
2022/01/05 05:58:41;;;;;;;20.57;12.83;;;6.60;99.90;;;;;;5034863;28;20586;-67
2022/01/05 06:01:08;;;;;;;19.47;12.77;;;6.60;99.90;;;;;;5029319;28;20298;-66
2022/01/05 06:03:35;;;;;;;15.17;11.60;;;6.60;99.90;;;;;;5037321;28;20242;-66
2022/01/05 06:06:03;;;;;;;17.43;13.10;;;6.60;99.90;;;;;;5053024;28;20289;-67
2022/01/05 06:08:30;;;;;;;18.03;12.47;;;6.60;99.90;;;;;;5041470;28;20209;-67
2022/01/05 06:10:56;;;;;;;17.73;12.23;;;6.60;99.90;;;;;;5049555;28;20329;-65
2022/01/05 06:13:23;;;;;;;17.77;12.33;;;6.60;99.90;;;;;;5030326;28;20290;-66
2022/01/05 06:15:50;;;;;;;16.83;12.07;;;6.60;99.90;;;;;;5035918;28;20194;-68
2022/01/05 06:18:17;;;;;;;19.93;12.30;;;6.60;99.90;;;;;;5044978;28;20225;-68
2022/01/05 06:20:44;;;;;;;17.30;12.83;;;6.60;99.90;;;;;;5049010;28;20208;-67
2022/01/05 06:23:12;;;;;;;15.77;11.73;;;6.60;99.90;;;;;;5048815;28;20209;-66
2022/01/05 06:25:39;;;;;;;15.30;11.97;;;6.50;99.90;;;;;;5044513;28;20215;-67
2022/01/05 06:28:08;;;;;;;15.27;11.80;;;6.60;99.90;;;;;;5047508;28;20302;-67
2022/01/05 06:30:35;;;;;;;18.63;14.17;;;6.60;99.90;;;;;;5039653;28;20202;-66
2022/01/05 06:33:02;;;;;;;17.90;13.40;;;6.70;99.90;;;;;;5048077;28;20270;-66
2022/01/05 06:35:29;;;;;;;15.30;11.23;;;6.70;99.90;;;;;;5033892;28;20199;-67
2022/01/05 06:37:56;;;;;;;16.30;12.33;;;6.70;99.90;;;;;;5048943;28;20220;-66
2022/01/05 06:40:25;;;;;;;18.07;13.70;;;6.70;99.90;;;;;;5045244;28;20202;-66
2022/01/05 06:42:51;;;;;;;13.47;11.23;;;6.70;99.90;;;;;;5047576;28;20214;-67
2022/01/05 06:45:18;;;;;;;12.43;9.37;;;6.70;99.90;;;;;;5029695;28;20217;-66
2022/01/05 06:47:45;;;;;;;13.00;10.50;;;6.60;99.90;;;;;;5043616;28;20286;-67
2022/01/05 06:50:12;;;;;;;15.67;10.30;;;6.60;99.90;;;;;;5035026;28;20198;-67
2022/01/05 06:52:39;;;;;;;12.60;9.93;;;6.60;99.90;;;;;;5032742;28;20203;-67
2022/01/05 06:55:08;;;;;;;13.60;9.60;;;6.60;99.90;;;;;;5033086;28;20217;-66
2022/01/05 06:57:39;;;;;;;11.43;8.77;;;6.60;99.90;;;;;;5033003;28;20230;-67
2022/01/05 07:00:08;;;;;;;10.90;9.30;;;6.70;99.90;;;;;;5034250;28;20218;-68
2022/01/05 07:02:35;;;;;;;11.50;8.77;;;6.70;99.90;;;;;;5038987;28;20296;-66
2022/01/05 07:05:02;;;;;;;10.63;8.67;;;6.70;99.90;;;;;;5032972;28;20842;-67
2022/01/05 07:07:29;;;;;;;11.93;8.57;;;6.70;99.90;;;;;;5048154;28;20646;-66
2022/01/05 07:09:56;;;;;;;13.50;8.90;;;6.70;99.90;;;;;;5044039;28;20246;-66
2022/01/05 07:12:23;;;;;;;13.10;9.50;;;6.70;99.90;;;;;;5036847;28;20290;-67
2022/01/05 07:14:51;;;;;;;14.40;9.77;;;6.70;99.90;;;;;;5032011;28;20215;-66
2022/01/05 07:17:18;;;;;;;14.07;10.50;;;6.70;99.90;;;;;;5043165;28;20293;-66
2022/01/05 07:19:45;;;;;;;14.67;11.47;;;6.70;99.90;;;;;;5044538;28;20306;-67
2022/01/05 07:22:12;;;;;;;15.70;11.93;;;6.70;99.90;;;;;;5036798;28;20210;-67
2022/01/05 07:24:39;;;;;;;15.47;11.27;;;6.90;99.90;;;;;;5037363;28;20237;-67
2022/01/05 07:27:07;;;;;;;14.67;11.47;;;6.80;99.90;;;;;;5045444;28;20530;-67
2022/01/05 07:29:33;;;;;;;13.57;10.97;;;6.80;99.90;;;;;;5031210;28;20216;-66
2022/01/05 07:32:02;;;;;;;15.90;11.13;;;6.80;99.90;;;;;;5037260;28;20210;-66
2022/01/05 07:34:29;;;;;;;13.47;10.93;;;6.80;99.90;;;;;;5042345;28;20207;-66
2022/01/05 07:36:55;;;;;;;14.13;10.13;;;6.80;99.90;;;;;;5042961;28;20249;-67
2022/01/05 07:39:22;;;;;;;14.93;10.73;;;6.80;99.90;;;;;;5038184;28;20257;-67
2022/01/05 07:41:49;;;;;;;14.97;10.67;;;6.80;99.90;;;;;;5042939;28;20212;-67
2022/01/05 07:44:16;;;;;;;15.53;10.43;;;6.80;99.90;;;;;;5042577;28;20292;-67
2022/01/05 07:46:43;;;;;;;13.17;10.53;;;6.80;99.90;;;;;;5038312;28;20689;-68
2022/01/05 07:49:11;;;;;;;15.27;11.13;;;6.70;99.90;;;;;;5047138;28;20265;-67
2022/01/05 07:51:38;;;;;;;14.80;10.87;;;6.80;99.90;;;;;;5039971;28;20306;-68
2022/01/05 07:54:05;;;;;;;15.13;10.37;;;6.80;99.90;;;;;;5041824;28;20293;-67
2022/01/05 07:56:33;;;;;;;14.80;11.27;;;6.80;99.90;;;;;;5036203;28;20226;-67
2022/01/05 07:59:00;;;;;;;16.03;10.70;;;6.90;99.90;;;;;;5045645;28;20233;-67
2022/01/05 08:01:27;;;;;;;14.97;10.57;;;6.90;99.90;;;;;;5044135;28;20216;-68
2022/01/05 08:03:54;;;;;;;12.93;10.50;;;6.90;99.90;;;;;;5051817;28;20216;-69
2022/01/05 08:06:22;;;;;;;13.40;10.07;;;7.00;99.90;;;;;;5047960;28;20198;-68
2022/01/05 08:08:52;;;;;;;14.40;10.27;;;6.90;99.90;;;;;;5052777;28;20210;-67
2022/01/05 08:11:19;;;;;;;12.37;9.57;;;7.00;99.90;;;;;;5041867;28;20220;-67
2022/01/05 08:13:47;;;;;;;13.80;10.77;;;6.90;99.90;;;;;;5040967;28;20715;-68
2022/01/05 08:16:16;;;;;;;14.03;10.23;;;7.00;99.90;;;;;;5035341;28;20274;-68
2022/01/05 08:18:42;;;;;;;13.83;10.47;;;7.00;99.90;;;;;;5037385;28;20215;-72
2022/01/05 08:21:09;;;;;;;16.77;11.00;;;7.00;99.90;;;;;;5052764;28;20202;-72
2022/01/05 08:23:38;;;;;;;15.17;11.37;;;7.00;99.90;;;;;;5045701;28;20296;-72
2022/01/05 08:26:06;;;;;;;16.67;11.00;;;7.00;99.90;;;;;;5043034;28;20216;-72
2022/01/05 08:28:33;;;;;;;12.93;10.33;;;7.00;99.90;;;;;;5052989;28;20663;-72
2022/01/05 08:31:00;;;;;;;13.10;9.77;;;7.00;99.90;;;;;;5039450;28;20217;-70
2022/01/05 08:33:27;;;;;;;13.40;10.23;;;7.00;99.90;;;;;;5040279;28;20551;-73
2022/01/05 08:35:54;;;;;;;14.77;10.90;;;7.00;99.90;;;;;;5040890;28;20663;-71
2022/01/05 08:38:22;;;;;;;13.03;10.13;;;7.00;99.90;;;;;;5045215;28;20285;-72
2022/01/05 08:40:50;;;;;;;13.93;9.87;;;7.00;99.90;;;;;;5036562;28;20294;-70
2022/01/05 08:43:17;;;;;;;12.07;9.17;;;7.00;99.90;;;;;;5041019;28;20257;-70
2022/01/05 08:45:45;;;;;;;12.57;9.60;;;7.00;99.90;;;;;;5043214;28;20242;-70
2022/01/05 08:48:13;;;;;;;14.97;9.40;;;7.00;99.90;;;;;;5033907;28;20329;-71
2022/01/05 08:50:40;;;;;;;12.20;9.60;;;7.00;99.90;;;;;;5030495;28;20214;-70
2022/01/05 08:53:08;;;;;;;15.70;11.00;;;7.00;99.90;;;;;;5049094;28;20745;-70
2022/01/05 08:55:37;;;;;;;12.90;10.27;;;7.00;99.90;;;;;;5035996;28;20207;-69
2022/01/05 08:58:06;;;;;;;15.33;10.70;;;7.00;99.90;;;;;;5022040;28;20238;-69
2022/01/05 09:00:33;;;;;;;14.93;11.17;;;7.00;99.90;;;;;;5037563;28;20289;-69
2022/01/05 09:03:00;;;;;;;15.00;10.80;;;7.00;99.90;;;;;;5030970;28;20216;-68
2022/01/05 09:05:27;;;;;;;15.87;11.03;;;7.00;99.90;;;;;;5022841;28;20210;-71
2022/01/05 09:07:54;;;;;;;14.67;10.53;;;7.00;99.90;;;;;;5031801;28;20695;-71
2022/01/05 09:10:21;;;;;;;15.73;10.50;;;7.00;99.90;;;;;;5029150;28;20202;-71
2022/01/05 09:12:48;;;;;;;15.40;9.87;;;7.10;99.90;;;;;;5033141;28;20298;-71
2022/01/05 09:15:16;;;;;;;18.77;12.03;;;7.10;99.90;;;;;;5029970;28;20219;-69
2022/01/05 09:17:43;;;;;;;18.03;11.80;;;7.10;99.90;;;;;;5021804;28;20564;-70
2022/01/05 09:20:11;;;;;;;15.60;10.47;;;7.10;99.90;;;;;;5031880;28;20233;-70
2022/01/05 09:22:39;;;;;;;16.23;10.07;;;7.10;99.90;;;;;;5037260;28;20209;-70
2022/01/05 09:25:07;;;;;;;16.77;11.50;;;7.10;99.90;;;;;;5027924;28;20291;-72
2022/01/05 09:27:35;;;;;;;14.87;10.80;;;7.10;99.90;;;;;;5033115;28;20230;-72
2022/01/05 09:30:02;;;;;;;17.67;10.87;;;7.20;99.90;;;;;;5033907;28;20202;-71
2022/01/05 09:32:30;;;;;;;14.30;10.53;;;7.20;99.90;;;;;;5032597;28;20203;-72
2022/01/05 09:34:57;;;;;;;13.27;9.93;;;7.30;99.90;;;;;;5037767;28;20234;-71
2022/01/05 09:37:27;;;;;;;15.17;9.97;;;7.30;99.90;;;;;;5047480;28;20238;-71
2022/01/05 09:42:40;;;;;;;13.37;10.27;;;7.20;99.90;;;;;;5035265;28;20240;-70
2022/01/05 09:45:20;;;;;;;14.43;10.95;;;7.30;99.90;;;;;;5042015;28;20443;-69
2022/01/05 09:48:19;;;;;;;17.92;13.77;;;7.30;99.90;;;;;;5039166;28;20433;-72
2022/01/05 09:50:51;;;;;;;17.60;13.33;;;7.30;99.90;;;;;;5026438;28;20553;-68
2022/01/05 09:53:18;;;;;;;18.17;12.70;;;7.30;99.90;;;;;;5020410;28;20441;-71
2022/01/05 09:55:51;;;;;;;20.27;12.07;;;7.30;99.90;;;;;;5032277;28;20298;-70
2022/01/05 09:58:19;;;;;;;14.30;10.57;;;7.40;99.90;;;;;;5031192;28;20617;-68
2022/01/05 10:00:46;;;;;;;16.57;10.77;;;7.50;99.90;;;;;;5024517;28;20233;-68
2022/01/05 10:03:15;;;;;;;13.67;10.20;;;7.40;99.90;;;;;;5042251;28;20217;-68
2022/01/05 10:05:42;;;;;;;16.03;9.80;;;7.40;99.90;;;;;;5031438;28;20290;-68
2022/01/05 10:08:10;;;;;;;13.47;10.37;;;7.50;99.90;;;;;;5025594;28;20225;-68
2022/01/05 10:10:37;;;;;;;12.60;10.10;;;7.40;99.90;;;;;;5031939;28;20238;-69
2022/01/05 10:13:04;;;;;;;14.83;10.67;;;7.50;99.90;;;;;;5035171;28;20244;-70
2022/01/05 10:15:31;;;;;;;15.87;10.47;;;7.50;99.90;;;;;;5035340;28;20328;-69
2022/01/05 10:18:19;;;;;;;15.00;10.87;;;7.50;99.90;;;;;;5047733;28;20260;-68
2022/01/05 10:20:56;;;;;;;15.07;10.67;;;7.50;99.90;;;;;;5040362;28;20220;-69
2022/01/05 10:23:38;;;;;;;13.30;9.60;;;7.40;99.90;;;;;;5032143;28;20290;-69
2022/01/05 10:26:23;;;;;;;13.23;10.30;;;7.40;99.90;;;;;;5041951;28;20834;-68
2022/01/05 10:28:52;;;;;;;16.20;11.23;;;7.40;99.90;;;;;;5030173;28;20234;-68
2022/01/05 10:31:20;;;;;;;13.40;9.90;;;7.40;99.90;;;;;;5035024;28;20225;-69
2022/01/05 10:33:49;;;;;;;17.40;11.77;;;7.40;99.90;;;;;;5028704;28;20215;-68
2022/01/05 10:36:16;;;;;;;16.77;11.17;;;7.50;99.90;;;;;;5031739;28;20380;-68
2022/01/05 10:38:57;;;;;;;16.17;11.20;;;7.40;99.90;;;;;;5044020;28;20659;-68
2022/01/05 10:41:27;;;;;;;13.93;10.93;;;7.50;99.90;;;;;;5045567;28;20298;-69
2022/01/05 10:44:24;;;;;;;14.10;10.60;;;7.50;99.90;;;;;;5042985;28;20259;-68
2022/01/05 10:46:53;;;;;;;17.03;10.87;;;7.50;99.90;;;;;;4978172;28;20204;-69
2022/01/05 10:49:30;;;;;;;13.57;10.20;;;7.50;99.90;;;;;;5024980;28;20280;-68
2022/01/05 10:52:00;;;;;;;15.37;10.47;;;7.50;99.90;;;;;;5031600;28;20220;-69
2022/01/05 10:54:29;;;;;;;18.13;11.27;;;7.60;99.90;;;;;;5028351;28;20214;-68
2022/01/05 10:57:07;;;;;;;15.13;10.03;;;7.60;99.90;;;;;;5031697;28;20285;-69
2022/01/05 10:59:37;;;;;;;16.47;10.97;;;7.60;99.90;;;;;;5018108;28;20225;-68
2022/01/05 11:02:24;;;;;;;14.63;10.67;;;7.60;99.90;;;;;;5044209;28;20214;-70
2022/01/05 11:04:54;;;;;;;15.07;11.23;;;7.70;99.90;;;;;;5036231;28;20614;-69
2022/01/05 11:07:22;;;;;;;14.43;10.47;;;7.70;99.90;;;;;;5045357;28;20776;-69
2022/01/05 11:09:54;;;;;;;15.47;10.63;;;7.70;99.90;;;;;;5024640;28;20212;-68
2022/01/05 11:12:22;;;;;;;13.83;10.47;;;7.70;99.90;;;;;;5030580;28;20579;-68
2022/01/05 11:14:49;;;;;;;15.00;10.33;;;7.80;99.90;;;;;;5029631;28;20210;-68
2022/01/05 11:17:18;;;;;;;13.83;9.87;;;9.20;99.90;;;;;;5029606;28;20703;-70
2022/01/05 11:19:45;;;;;;;14.07;10.40;;;7.80;99.90;;;;;;5047703;28;20233;-69
2022/01/05 11:22:15;;;;;;;11.77;9.80;;;7.80;99.90;;;;;;5046941;28;20210;-67
2022/01/05 11:24:45;;;;;;;12.87;10.23;;;7.80;99.90;;;;;;5040572;28;21672;-69
2022/01/05 11:27:15;;;;;;;16.17;10.67;;;7.80;99.90;;;;;;5037617;28;20659;-68
2022/01/05 11:29:43;;;;;;;14.27;9.60;;;7.80;99.90;;;;;;5018560;28;20355;-67
2022/01/05 11:32:12;;;;;;;12.30;10.07;;;7.80;99.90;;;;;;5034145;28;20213;-70
2022/01/05 11:34:38;;;;;;;15.30;9.80;;;7.80;99.90;;;;;;5041025;28;20593;-68
2022/01/05 11:37:07;;;;;;;12.87;9.83;;;6.50;99.90;;;;;;5040570;28;20229;-68
2022/01/05 11:39:41;;;;;;;12.87;9.27;;;7.80;99.90;;;;;;5046559;28;20202;-68
2022/01/05 11:42:13;;;;;;;12.00;9.50;;;7.80;99.90;;;;;;5039579;28;20202;-69
2022/01/05 11:44:48;;;;;;;15.47;9.60;;;7.80;99.90;;;;;;5035503;28;20228;-68
2022/01/05 11:47:21;;;;;;;14.00;9.63;;;7.80;99.90;;;;;;5031052;28;20228;-68
2022/01/05 11:49:47;;;;;;;13.83;9.90;;;7.70;99.90;;;;;;5041177;28;20605;-67
2022/01/05 11:52:14;;;;;;;14.30;9.87;;;7.70;99.90;;;;;;5038105;28;20213;-69
2022/01/05 11:55:02;;;;;;;10.77;8.87;;;7.70;99.90;;;;;;5014260;28;20250;-68
2022/01/05 11:57:29;;;;;;;10.00;7.73;;;7.70;99.90;;;;;;5025379;28;20641;-69
2022/01/05 12:00:16;;;;;;;11.43;9.10;;;7.70;99.90;;;;;;5035722;28;20601;-68
2022/01/05 12:02:43;;;;;;;16.37;9.73;;;7.60;99.90;;;;;;5029579;28;20217;-69
2022/01/05 12:05:10;;;;;;;13.57;9.17;;;7.60;99.90;;;;;;5026887;28;20213;-68
2022/01/05 12:07:43;;;;;;;13.53;9.53;;;7.60;99.90;;;;;;5029673;28;20213;-69
2022/01/05 12:10:16;;;;;;;10.57;8.03;;;7.60;99.90;;;;;;5029436;28;20198;-68
2022/01/05 12:12:57;;;;;;;11.60;8.60;;;7.60;99.90;;;;;;5028749;28;20202;-69
2022/01/05 12:15:50;;;;;;;12.83;8.50;;;7.60;99.90;;;;;;5027996;28;20217;-68
2022/01/05 12:18:26;;;;;;;12.27;8.70;;;7.50;99.90;;;;;;5041138;28;20296;-68
2022/01/05 12:20:54;;;;;;;13.63;9.33;;;7.50;99.90;;;;;;5032228;28;20669;-70
2022/01/05 12:23:24;;;;;;;12.23;8.33;;;7.50;99.90;;;;;;5037446;28;20214;-71
2022/01/05 12:26:15;;;;;;;12.90;8.57;;;7.40;99.90;;;;;;5032543;28;20720;-69
2022/01/05 12:28:52;;;;;;;11.87;8.97;;;7.40;99.90;;;;;;5024156;28;20213;-69
2022/01/05 12:31:19;;;;;;;12.43;8.10;;;7.30;99.90;;;;;;5029115;28;20602;-69
2022/01/05 12:33:49;;;;;;;10.70;7.57;;;7.30;99.90;;;;;;5042875;28;20217;-70
2022/01/05 12:36:33;;;;;;;11.67;8.20;;;7.30;99.90;;;;;;5034793;28;20245;-71
2022/01/05 12:39:00;;;;;;;10.27;7.87;;;7.20;99.90;;;;;;5042758;28;20593;-68
2022/01/05 12:41:42;;;;;;;10.93;8.13;;;7.20;99.90;;;;;;5045768;28;20222;-68
2022/01/05 12:44:37;;;;;;;10.10;7.93;;;7.20;99.90;;;;;;5039140;28;20241;-68
2022/01/05 12:47:04;;;;;;;12.77;7.43;;;7.30;99.90;;;;;;5039986;28;20210;-68
2022/01/05 12:49:33;;;;;;;11.20;7.57;;;7.20;99.90;;;;;;5043106;28;20202;-68
2022/01/05 12:52:06;;;;;;;13.40;8.07;;;7.20;99.90;;;;;;5032570;28;20206;-68